Air Sicilia Virtual Airways - Route

Air Sicilia Virtual Airways - SIC244L

( MM ) VYYY
Yangon International Airport
YANGON ( RGN )
plane_to ( TH ) VTBU
U-Tapao International Airport
RAYONG ( UTP )
Tour Amelia EARHART - LEG: 20

AIRPORT NEAR NAVIGATION AIDS

Type Name Frequency
NDB Mingaladon 397 KHZ
NDB Yangon 265 KHZ

METAR / TAF
VYYY 180400Z 22006KT 6000 -RA BKN013 FEW018CB OVC090 26/26 Q1010 TEMPO 5000 -RA

RUNWAY INFORMATION

Runway Runway length Runway width Runway elevation Runway displaced threshold Runway heading
03 11200 200 109 0 33.1
21 11200 200 65 275 213.1

AIRPORT FREQUENCIES

Type Name Frequency
APP MINGALADON 119.7 MHZ
ATIS ATIS 128.4 MHZ
GND MINGALADON 121.9 MHZ
TWR MINGALADON 118.1 MHZ

AIRPORT NEAR NAVIGATION AIDS

Type Name Frequency
TACAN U Taphao 115800 KHZ
VOR-DME U Taphao 110800 KHZ
NDB U Taphao 414 KHZ

METAR / TAF
VTBU 180400Z 22008KT 9999 FEW020 31/22 Q1011 NOSIG

RUNWAY INFORMATION

Runway Runway length Runway width Runway elevation Runway displaced threshold Runway heading
18 11500 197 59 0 185
36 11500 197 25 0 5

AIRPORT FREQUENCIES

Type Name Frequency
APP APP 119.7 MHZ
GND GND 121.9 MHZ
TWR TWR 118.3 MHZ

Flightplan

via YE VYYE

Air Sicilia Virtual Airways Fleets

AVAILABLE AIRCRAFTS for route at this time in Yangon International Airport
DC3 - Douglas DC3
( US ) Douglas

Aircraft in fleet: 2

405 NM

Distance in nautical miles.

€ 0,00

Ticket price for this flight.

Nr. 20

Leg



12-11-2018
Aerosoft Airport Rio de Janeiro International V2.0 XP

L'Aeroporto Internazionale di Rio de Janeiro-Galeão (IATA: GIG, ICAO: SBGL), costruito nel 1952 nel quartiere di Ilha do Governador ed intitolato al musicista Antônio Carlos Jobim, è il principale aeroporto internazio ....


15-10-2018
Aerosoft A320 Family professional

La gamma di aeromobili A320 è una delle più comuni nei cieli. Questi aerei di linea a doppio-getto a corto e medio raggio si sono dimostrati convenienti, affidabili e prontamente disponibili, rendendoli le opzioni migl ....


10-10-2018
Motore critico ( Critical Engine )

Il motore critico di un velivolo ad ala fissa multi-motore è il motore che, in caso di guasto, influirebbe negativamente sulle prestazioni o sulla capacità di manovra di un aereo. Sui velivoli ad elica, vi è un ....


04-10-2018
Aerosoft Dortmund XP

Scopri il centro della regione della Ruhr su XPlane 11 - lo scenario Dortmund XP è una ricostruzione completa della città di Dortmund per il simulatore di volo targato Laminar. Oltre all'intera area urbana di Dortmu ....


07-08-2018
Aerosoft Professional Flight Planner PFPX

PFPX - Professional Flight Planner X - è un nuovo ed innovativo strumento di pianificazione del volo sviluppato da piloti e dispatcher del mondo reale. È un'aggiunta preziosa e realistica alla tua esperienza di simulaz ....